This is the latest recevied weather packets stored in our database for station/object SQ9PDE-13. If no packets are shown the sender has not sent any weather packets the latest 10 day(s).
| Time | Temp. | Humidity | Pressure | Rain* | Wind** | Luminosity | Snow |
|---|---|---|---|---|---|---|---|
| 1778061744 | 23.89° C | 46% | 1004.9 hPa | - | - | - | - |
| 1778061444 | 22.78° C | 50% | 1005.3 hPa | - | - | - | - |
| 1778061143 | 23.89° C | 48% | 1004.9 hPa | - | - | - | - |
| 1778060843 | 23.89° C | 48% | 1004.8 hPa | - | - | - | - |
| 1778060542 | 23.33° C | 49% | 1005.1 hPa | - | - | - | - |
| 1778060241 | 24.44° C | 49% | 1005.3 hPa | - | - | - | - |
| 1778059941 | 23.33° C | 50% | 1005.2 hPa | - | - | - | - |
| 1778059640 | 23.89° C | 50% | 1005.4 hPa | - | - | - | - |
| 1778059340 | 25° C | 49% | 1005.2 hPa | - | - | - | - |
| 1778059048 | 24.44° C | 51% | 1005.4 hPa | - | - | - | - |
| 1778059039 | 24.44° C | 51% | 1005.4 hPa | - | - | - | - |
| 1778058739 | 23.89° C | 51% | 1005.5 hPa | - | - | - | - |
| 1778058439 | 23.89° C | 51% | 1005.7 hPa | - | - | - | - |
| 1778058138 | 24.44° C | 51% | 1005.5 hPa | - | - | - | - |
| 1778057837 | 26.11° C | 50% | 1005.4 hPa | - | - | - | - |
| 1778057537 | 24.44° C | 53% | 1005.7 hPa | - | - | - | - |
| 1778057236 | 25.56° C | 52% | 1005.5 hPa | - | - | - | - |
| 1778056936 | 25° C | 54% | 1005.7 hPa | - | - | - | - |
| 1778056635 | 25.56° C | 52% | 1005.6 hPa | - | - | - | - |
| 1778056335 | 25.56° C | 53% | 1005.6 hPa | - | - | - | - |
| 1778056034 | 23.33° C | 56% | 1006.1 hPa | - | - | - | - |
| 1778055734 | 24.44° C | 56% | 1005.8 hPa | - | - | - | - |
| 1778055442 | 22.78° C | - | - | - | - | - | - |
| 1778055433 | 22.78° C | 59% | 1006.2 hPa | - | - | - | - |
| 1778055133 | 22.78° C | 58% | 1006.1 hPa | - | - | - | - |
* Rain since midnight (hover to see other rain measurements)
** Current wind speed in m/s (hover to see current wind gust speed)